createdAt,value
2019-03-31T00:00:29.824Z,33.57
2019-03-31T00:03:02.440Z,28.13
2019-03-31T00:05:32.607Z,27.63
2019-03-31T00:08:02.745Z,28.67
2019-03-31T00:10:35.384Z,29.73
2019-03-31T00:13:05.578Z,29.90
2019-03-31T00:15:35.757Z,31.00
2019-03-31T00:18:06.181Z,30.03
2019-03-31T00:20:37.515Z,25.20
2019-03-31T00:23:08.711Z,36.50
2019-03-31T00:25:40.536Z,32.97
2019-03-31T00:28:11.961Z,29.10
2019-03-31T00:30:43.655Z,28.30
2019-03-31T00:33:20.934Z,33.20
2019-03-31T00:35:51.308Z,30.77
2019-03-31T00:38:21.608Z,28.57
2019-03-31T00:40:53.297Z,27.10
2019-03-31T00:43:23.535Z,26.50
2019-03-31T00:45:53.609Z,27.80
2019-03-31T00:48:23.807Z,24.10
2019-03-31T00:50:54.986Z,27.93
2019-03-31T00:53:25.211Z,28.07
2019-03-31T00:55:56.650Z,27.63
2019-03-31T00:58:26.936Z,27.77
2019-03-31T01:01:17.976Z,24.10
2019-03-31T01:03:48.640Z,25.87
2019-03-31T01:06:19.232Z,32.73
2019-03-31T01:08:49.399Z,29.33
2019-03-31T01:11:25.608Z,26.90
2019-03-31T01:13:56.073Z,35.00
2019-03-31T01:16:27.281Z,35.43
2019-03-31T01:18:57.422Z,27.20
2019-03-31T01:21:30.248Z,29.60
2019-03-31T01:24:02.935Z,28.03
2019-03-31T01:26:33.060Z,28.83
2019-03-31T01:29:06.166Z,29.70
2019-03-31T01:31:49.581Z,31.83
2019-03-31T01:34:11.720Z,33.03
2019-03-31T01:36:42.036Z,29.67
2019-03-31T01:39:12.546Z,28.67
2019-03-31T01:41:42.580Z,26.27
2019-03-31T01:44:12.796Z,27.43
2019-03-31T01:46:42.997Z,31.73
2019-03-31T01:49:15.171Z,24.43
2019-03-31T01:51:45.211Z,22.80
2019-03-31T01:54:15.455Z,37.63
2019-03-31T01:56:45.873Z,27.47
2019-03-31T01:59:16.126Z,29.97
2019-03-31T02:01:46.411Z,27.67
2019-03-31T02:04:16.714Z,28.23
2019-03-31T02:06:50.204Z,27.40
2019-03-31T02:09:20.600Z,27.40
2019-03-31T02:11:50.756Z,33.93
2019-03-31T02:14:21.043Z,31.23
2019-03-31T02:16:51.166Z,27.40
2019-03-31T02:19:21.473Z,33.77
2019-03-31T02:21:57.440Z,27.50
2019-03-31T02:24:27.621Z,29.20
2019-03-31T02:26:57.927Z,27.27
2019-03-31T02:29:27.955Z,30.77
2019-03-31T02:31:58.098Z,32.70
2019-03-31T02:34:30.090Z,30.93
2019-03-31T02:37:01.647Z,32.37
2019-03-31T02:39:31.784Z,31.27
2019-03-31T02:42:02.013Z,28.13
2019-03-31T02:44:34.454Z,30.57
2019-03-31T02:47:05.590Z,28.50
2019-03-31T02:49:35.780Z,28.50
2019-03-31T02:52:06.276Z,27.37
2019-03-31T02:54:36.705Z,27.33
2019-03-31T02:57:09.679Z,31.27
2019-03-31T02:59:44.209Z,37.00
2019-03-31T03:02:15.333Z,25.07
2019-03-31T03:04:47.411Z,30.87
2019-03-31T03:07:20.004Z,28.30
2019-03-31T03:09:51.922Z,26.67
2019-03-31T03:12:25.409Z,27.47
2019-03-31T03:14:57.192Z,31.03
2019-03-31T03:17:29.482Z,28.73
2019-03-31T03:19:59.633Z,27.07
2019-03-31T03:22:31.992Z,29.70
2019-03-31T03:25:02.260Z,27.60
2019-03-31T03:27:32.605Z,29.60
2019-03-31T03:30:02.862Z,31.50
2019-03-31T03:32:32.884Z,29.30
2019-03-31T03:35:04.147Z,32.87
2019-03-31T03:37:34.231Z,26.77
2019-03-31T03:40:04.578Z,31.20
2019-03-31T03:42:34.906Z,34.50
2019-03-31T03:45:05.299Z,27.37
2019-03-31T03:47:35.441Z,28.17
2019-03-31T03:50:09.276Z,24.33
2019-03-31T03:52:39.501Z,24.90
2019-03-31T03:55:10.054Z,31.13
2019-03-31T03:57:40.236Z,31.80
2019-03-31T04:00:11.095Z,30.30
2019-03-31T04:02:41.330Z,27.40
2019-03-31T04:05:13.733Z,27.77
2019-03-31T04:07:44.034Z,33.97
2019-03-31T04:10:56.512Z,32.13
2019-03-31T04:13:26.585Z,29.23
2019-03-31T04:15:56.538Z,31.13
2019-03-31T04:18:26.729Z,30.10
2019-03-31T04:20:56.898Z,28.83
2019-03-31T04:23:27.080Z,30.70
2019-03-31T04:25:57.234Z,32.63
2019-03-31T04:28:27.466Z,40.87
2019-03-31T04:30:57.682Z,33.83
2019-03-31T04:33:27.884Z,34.80
2019-03-31T04:35:58.127Z,29.43
2019-03-31T04:38:29.298Z,26.40
2019-03-31T04:40:59.536Z,31.53
2019-03-31T04:43:29.705Z,29.57
2019-03-31T04:46:02.872Z,29.17
2019-03-31T04:48:35.383Z,38.70
2019-03-31T04:51:08.563Z,29.67
2019-03-31T04:53:39.057Z,29.43
2019-03-31T04:56:09.135Z,30.00
2019-03-31T04:58:40.399Z,27.73
2019-03-31T05:01:14.782Z,38.00
2019-03-31T05:03:46.754Z,34.17
2019-03-31T05:06:17.028Z,29.03
2019-03-31T05:08:49.316Z,30.97
2019-03-31T05:11:19.730Z,33.67
2019-03-31T05:13:49.877Z,43.95
2019-03-31T05:16:22.385Z,36.90
2019-03-31T05:18:54.307Z,37.73
2019-03-31T05:21:24.286Z,35.60
2019-03-31T05:23:54.431Z,43.67
2019-03-31T05:26:24.555Z,35.97
2019-03-31T05:28:55.907Z,36.00
2019-03-31T05:31:25.986Z,45.27
2019-03-31T05:33:56.081Z,33.10
2019-03-31T05:36:26.090Z,39.00
2019-03-31T05:38:56.304Z,39.80
2019-03-31T05:41:28.398Z,40.60
2019-03-31T05:44:05.593Z,51.93
2019-03-31T05:46:31.553Z,39.03
2019-03-31T05:49:01.753Z,37.57
2019-03-31T05:51:34.319Z,39.70
2019-03-31T05:54:04.549Z,46.97
2019-03-31T05:56:36.652Z,48.10
2019-03-31T05:59:06.947Z,44.43
2019-03-31T06:01:37.113Z,51.40
2019-03-31T06:04:07.335Z,45.47
2019-03-31T06:06:40.556Z,49.17
2019-03-31T06:09:10.802Z,48.57
2019-03-31T06:11:41.061Z,35.97
2019-03-31T06:14:11.355Z,39.37
2019-03-31T06:16:41.512Z,39.17
2019-03-31T06:19:11.743Z,42.03
2019-03-31T06:21:43.259Z,42.67
2019-03-31T06:24:13.452Z,40.03
2019-03-31T06:26:43.703Z,43.27
2019-03-31T06:29:13.757Z,41.13
2019-03-31T06:31:46.621Z,41.33
2019-03-31T06:34:16.706Z,43.33
2019-03-31T06:36:46.976Z,42.03
2019-03-31T06:39:19.024Z,40.97
2019-03-31T06:41:49.127Z,39.83
2019-03-31T06:44:19.206Z,40.80
2019-03-31T06:46:50.618Z,38.30
2019-03-31T06:49:20.670Z,36.13
2019-03-31T06:51:50.914Z,37.00
2019-03-31T06:54:21.206Z,39.57
2019-03-31T06:56:52.836Z,35.07
2019-03-31T06:59:25.276Z,36.70
2019-03-31T07:01:56.897Z,34.43
2019-03-31T07:04:27.190Z,34.25
2019-03-31T07:06:58.946Z,31.90
2019-03-31T07:09:29.133Z,32.50
2019-03-31T07:11:59.546Z,28.73
2019-03-31T07:14:29.749Z,33.30
2019-03-31T07:17:00.120Z,23.20
2019-03-31T07:19:31.748Z,22.73
2019-03-31T07:22:03.342Z,27.47
2019-03-31T07:24:35.514Z,38.70
2019-03-31T07:27:07.031Z,19.57
2019-03-31T07:29:39.506Z,17.00
2019-03-31T07:32:10.873Z,17.47
2019-03-31T07:34:41.968Z,24.10
2019-03-31T07:37:12.173Z,15.07
2019-03-31T07:39:45.757Z,17.33
2019-03-31T07:42:15.242Z,16.43
2019-03-31T07:44:47.550Z,12.97
2019-03-31T07:47:18.650Z,17.73
2019-03-31T07:49:50.232Z,13.13
2019-03-31T07:52:20.418Z,18.13
2019-03-31T07:54:52.168Z,16.13
2019-03-31T07:57:22.263Z,17.43
2019-03-31T07:59:52.455Z,18.17
2019-03-31T08:02:24.496Z,16.50
2019-03-31T08:04:54.471Z,17.10
2019-03-31T08:07:25.611Z,17.37
2019-03-31T08:09:55.741Z,17.27
2019-03-31T08:12:25.993Z,18.07
2019-03-31T08:14:58.200Z,19.90
2019-03-31T08:17:30.535Z,13.97
2019-03-31T08:20:00.707Z,13.77
2019-03-31T08:22:32.556Z,14.67
2019-03-31T08:25:04.858Z,12.90
2019-03-31T08:27:35.111Z,14.10
2019-03-31T08:30:06.110Z,12.40
2019-03-31T08:32:40.992Z,15.60
2019-03-31T08:35:12.894Z,15.53
2019-03-31T08:37:45.419Z,13.67
2019-03-31T08:40:19.225Z,10.20
2019-03-31T08:42:49.322Z,13.57
2019-03-31T08:45:21.503Z,10.97
2019-03-31T08:47:53.724Z,12.73
2019-03-31T08:50:26.623Z,11.93
2019-03-31T08:52:58.177Z,14.97
2019-03-31T08:55:28.396Z,23.53
2019-03-31T08:58:02.161Z,10.93
2019-03-31T09:00:39.528Z,11.13
2019-03-31T09:03:13.694Z,12.57
2019-03-31T09:05:43.997Z,19.03
2019-03-31T09:08:14.226Z,11.63
2019-03-31T09:10:44.501Z,18.70
2019-03-31T09:13:16.729Z,20.10
2019-03-31T09:15:46.994Z,18.10
2019-03-31T09:18:20.423Z,15.20
2019-03-31T09:20:50.541Z,10.93
2019-03-31T09:23:22.197Z,14.00
2019-03-31T09:25:56.796Z,14.60
2019-03-31T09:28:27.044Z,16.10
2019-03-31T09:30:57.078Z,12.93
2019-03-31T09:33:27.262Z,11.80
2019-03-31T09:35:57.608Z,14.07
2019-03-31T09:38:27.952Z,10.27
2019-03-31T09:40:58.082Z,22.07
2019-03-31T09:43:28.237Z,24.17
2019-03-31T09:45:58.465Z,13.60
2019-03-31T09:48:28.598Z,11.53
2019-03-31T09:50:58.883Z,10.53
2019-03-31T09:53:30.913Z,10.10
2019-03-31T09:56:01.464Z,11.00
2019-03-31T09:58:32.859Z,14.03
2019-03-31T10:01:08.011Z,9.53
2019-03-31T10:03:36.377Z,9.10
2019-03-31T10:06:11.106Z,11.73
2019-03-31T10:08:38.646Z,9.53
2019-03-31T10:11:08.938Z,7.80
2019-03-31T10:13:39.070Z,9.23
2019-03-31T10:16:10.473Z,9.00
2019-03-31T10:18:40.719Z,8.07
2019-03-31T10:21:12.302Z,10.80
2019-03-31T10:23:42.314Z,9.67
2019-03-31T10:26:15.875Z,12.23
2019-03-31T10:28:44.240Z,10.63
2019-03-31T10:31:15.608Z,9.63
2019-03-31T10:33:45.864Z,10.63
2019-03-31T10:36:18.178Z,12.77
2019-03-31T10:38:49.651Z,9.73
2019-03-31T10:41:19.883Z,8.13
2019-03-31T10:43:50.075Z,10.80
2019-03-31T10:46:20.212Z,6.87
2019-03-31T10:48:51.636Z,8.07
2019-03-31T10:51:21.829Z,9.83
2019-03-31T10:53:51.867Z,9.40
2019-03-31T10:56:26.091Z,6.33
2019-03-31T10:58:56.318Z,9.33
2019-03-31T11:01:26.332Z,6.93
2019-03-31T11:03:56.628Z,9.23
2019-03-31T11:06:26.873Z,8.57
2019-03-31T11:08:57.039Z,9.33
2019-03-31T11:11:35.086Z,10.43
2019-03-31T11:14:12.402Z,10.80
2019-03-31T11:16:46.763Z,11.27
2019-03-31T11:19:16.902Z,8.70
2019-03-31T11:21:53.736Z,9.63
2019-03-31T11:24:26.037Z,12.57
2019-03-31T11:26:56.431Z,9.63
2019-03-31T11:29:27.867Z,11.57
2019-03-31T11:31:59.161Z,14.13
2019-03-31T11:34:32.175Z,14.17
2019-03-31T11:37:12.875Z,10.50
2019-03-31T11:39:35.888Z,14.80
2019-03-31T11:42:08.398Z,12.70
2019-03-31T11:44:38.542Z,11.63
2019-03-31T11:47:08.665Z,13.40
2019-03-31T11:49:40.928Z,17.47
2019-03-31T11:52:12.356Z,12.67
2019-03-31T11:54:49.864Z,13.87
2019-03-31T11:57:21.347Z,14.67
2019-03-31T11:59:54.481Z,17.47
2019-03-31T12:02:27.726Z,20.57
2019-03-31T12:05:00.149Z,12.37
2019-03-31T12:07:30.569Z,13.43
2019-03-31T12:10:00.730Z,9.63
2019-03-31T12:12:30.910Z,11.57
2019-03-31T12:15:04.391Z,13.73
2019-03-31T12:17:38.678Z,15.13
2019-03-31T12:20:11.132Z,10.87
2019-03-31T12:22:41.455Z,14.37
2019-03-31T12:25:11.838Z,20.40
2019-03-31T12:27:52.347Z,9.40
2019-03-31T12:30:30.350Z,12.20
2019-03-31T12:33:04.468Z,10.50
2019-03-31T12:35:38.386Z,13.17
2019-03-31T12:38:08.503Z,11.63
2019-03-31T12:40:38.859Z,10.53
2019-03-31T12:43:11.120Z,10.20
2019-03-31T12:45:43.609Z,13.93
2019-03-31T12:48:13.868Z,11.20
2019-03-31T12:50:46.411Z,13.70
2019-03-31T12:53:16.545Z,11.30
2019-03-31T12:55:59.456Z,13.03
2019-03-31T12:58:19.782Z,8.47
2019-03-31T13:00:51.481Z,10.93
2019-03-31T13:03:25.094Z,12.17
2019-03-31T13:05:55.365Z,22.70
2019-03-31T13:08:25.584Z,11.17
2019-03-31T13:10:55.771Z,12.70
2019-03-31T13:13:26.939Z,22.37
2019-03-31T13:16:00.854Z,10.10
2019-03-31T13:18:31.044Z,14.30
2019-03-31T13:21:03.572Z,11.77
2019-03-31T13:23:33.815Z,15.57
2019-03-31T13:26:04.058Z,14.73
2019-03-31T13:28:34.390Z,14.80
2019-03-31T13:31:04.678Z,42.63
2019-03-31T13:33:34.941Z,11.60
2019-03-31T13:36:05.170Z,13.37
2019-03-31T13:38:35.410Z,14.53
2019-03-31T13:41:05.811Z,18.83
2019-03-31T13:43:35.970Z,13.97
2019-03-31T13:46:06.067Z,14.40
2019-03-31T13:48:37.460Z,19.80
2019-03-31T13:51:08.696Z,18.53
2019-03-31T13:53:40.185Z,14.30
2019-03-31T13:56:15.666Z,12.50
2019-03-31T13:58:52.379Z,42.07
2019-03-31T14:01:26.661Z,16.23
2019-03-31T14:03:56.735Z,16.33
2019-03-31T14:06:31.658Z,14.30
2019-03-31T14:09:00.955Z,15.67
2019-03-31T14:11:33.813Z,16.10
2019-03-31T14:14:05.272Z,18.77
2019-03-31T14:16:35.567Z,15.17
2019-03-31T14:19:05.907Z,13.97
2019-03-31T14:21:40.317Z,12.50
2019-03-31T14:24:11.485Z,17.57
2019-03-31T14:26:41.725Z,16.97
2019-03-31T14:29:13.059Z,16.63
2019-03-31T14:31:43.279Z,28.17
2019-03-31T14:34:18.796Z,19.67
2019-03-31T14:36:52.346Z,15.13
2019-03-31T14:39:22.569Z,16.73
2019-03-31T14:41:53.099Z,13.37
2019-03-31T14:44:23.184Z,15.67
2019-03-31T14:46:54.597Z,29.60
2019-03-31T14:49:27.284Z,13.07
2019-03-31T14:52:00.965Z,16.03
2019-03-31T14:54:30.683Z,13.73
2019-03-31T14:57:02.090Z,13.13
2019-03-31T14:59:32.237Z,12.70
2019-03-31T15:02:02.423Z,12.73
2019-03-31T15:04:36.788Z,11.40
2019-03-31T15:07:09.708Z,13.67
2019-03-31T15:09:43.729Z,15.37
2019-03-31T15:12:16.086Z,12.37
2019-03-31T15:14:51.591Z,25.03
2019-03-31T15:17:21.797Z,15.30
2019-03-31T15:19:55.390Z,17.97
2019-03-31T15:22:27.750Z,18.10
2019-03-31T15:24:57.954Z,16.63
2019-03-31T15:27:30.465Z,14.53
2019-03-31T15:30:02.545Z,13.33
2019-03-31T15:32:34.065Z,16.97
2019-03-31T15:35:05.966Z,16.07
2019-03-31T15:37:36.128Z,19.20
2019-03-31T15:40:07.153Z,18.10
2019-03-31T15:42:39.407Z,20.93
2019-03-31T15:45:10.192Z,16.63
2019-03-31T15:47:40.343Z,20.50
2019-03-31T15:50:12.973Z,18.10
2019-03-31T15:52:43.136Z,14.93
2019-03-31T15:55:14.934Z,23.43
2019-03-31T15:57:46.986Z,16.90
2019-03-31T16:00:18.175Z,16.53
2019-03-31T16:02:48.462Z,13.43
2019-03-31T16:05:18.621Z,25.50
2019-03-31T16:07:50.295Z,19.60
2019-03-31T16:10:22.032Z,20.30
2019-03-31T16:12:51.765Z,18.93
2019-03-31T16:15:21.708Z,16.83
2019-03-31T16:17:51.342Z,29.00
2019-03-31T16:20:22.098Z,43.03
2019-03-31T16:22:51.672Z,24.80
2019-03-31T16:25:31.470Z,24.77
2019-03-31T16:28:01.057Z,28.03
2019-03-31T16:30:32.586Z,23.33
2019-03-31T16:33:06.993Z,38.60
2019-03-31T16:35:35.759Z,23.77
2019-03-31T16:38:06.978Z,26.97
2019-03-31T16:40:36.629Z,33.97
2019-03-31T16:43:08.557Z,37.50
2019-03-31T16:45:48.102Z,24.57
2019-03-31T16:48:17.841Z,26.10
2019-03-31T16:50:47.377Z,22.97
2019-03-31T16:53:21.908Z,20.27
2019-03-31T16:55:51.518Z,21.10
2019-03-31T16:58:21.102Z,29.13
2019-03-31T17:00:50.937Z,32.53
2019-03-31T17:03:20.609Z,33.43
2019-03-31T17:05:50.329Z,32.13
2019-03-31T17:08:20.069Z,35.00
2019-03-31T17:10:49.795Z,30.47
2019-03-31T17:13:19.413Z,32.03
2019-03-31T17:15:48.934Z,30.47
2019-03-31T17:18:18.701Z,29.37
2019-03-31T17:20:48.558Z,40.93
2019-03-31T17:23:20.640Z,42.63
2019-03-31T17:25:50.299Z,36.70
2019-03-31T17:28:20.005Z,34.50
2019-03-31T17:30:51.918Z,44.77
2019-03-31T17:33:30.374Z,38.30
2019-03-31T17:35:54.419Z,49.80
2019-03-31T17:38:25.031Z,48.10
2019-03-31T17:40:56.567Z,69.97
2019-03-31T17:43:26.348Z,59.47
2019-03-31T17:45:58.103Z,77.70
2019-03-31T17:48:27.765Z,227.57
2019-03-31T17:50:57.499Z,139.90
2019-03-31T17:53:26.979Z,86.57
2019-03-31T17:55:57.829Z,65.47
2019-03-31T17:58:27.380Z,100.97
2019-03-31T18:00:58.735Z,109.27
2019-03-31T18:03:28.362Z,101.57
2019-03-31T18:05:58.017Z,105.07
2019-03-31T18:08:29.080Z,86.53
2019-03-31T18:11:00.231Z,60.00
2019-03-31T18:13:29.847Z,66.87
2019-03-31T18:15:59.414Z,69.03
2019-03-31T18:18:42.773Z,55.87
2019-03-31T18:21:12.734Z,51.93
2019-03-31T18:23:46.360Z,39.77
2019-03-31T18:26:15.928Z,40.73
2019-03-31T18:28:45.714Z,39.90
2019-03-31T18:31:17.968Z,37.50
2019-03-31T18:33:51.041Z,37.50
2019-03-31T18:36:20.861Z,39.53
2019-03-31T18:38:50.578Z,39.23
2019-03-31T18:41:22.245Z,32.17
2019-03-31T18:43:52.128Z,32.73
2019-03-31T18:46:23.900Z,41.23
2019-03-31T18:48:53.423Z,42.50
2019-03-31T18:51:23.075Z,41.37
2019-03-31T18:54:20.861Z,44.00
2019-03-31T18:57:12.154Z,53.00
2019-03-31T19:00:06.876Z,43.00
2019-03-31T19:02:43.449Z,45.80
2019-03-31T19:05:43.811Z,52.20
2019-03-31T19:08:29.629Z,43.47
2019-03-31T19:11:15.009Z,52.27
2019-03-31T19:14:04.905Z,54.93
2019-03-31T19:16:56.262Z,55.33
2019-03-31T19:19:32.886Z,50.47
2019-03-31T19:22:24.515Z,47.60
2019-03-31T19:25:11.966Z,36.30
2019-03-31T19:27:58.632Z,34.80
2019-03-31T19:30:47.148Z,32.67
2019-03-31T19:33:38.501Z,30.53
2019-03-31T19:36:28.445Z,38.70
2019-03-31T19:39:19.938Z,35.33
2019-03-31T19:41:58.780Z,40.90
2019-03-31T19:44:51.184Z,45.40
2019-03-31T19:47:58.032Z,40.97
2019-03-31T19:50:39.396Z,49.03
2019-03-31T19:53:27.989Z,42.77
2019-03-31T19:56:25.241Z,37.43
2019-03-31T19:59:10.521Z,43.47
2019-03-31T20:01:44.822Z,44.37
2019-03-31T20:04:33.294Z,34.97
2019-03-31T20:07:21.306Z,39.77
2019-03-31T20:10:09.319Z,33.80
2019-03-31T20:13:09.834Z,30.07
2019-03-31T20:15:48.657Z,33.70
2019-03-31T20:18:52.318Z,32.33
2019-03-31T20:21:35.476Z,33.27
2019-03-31T20:24:39.161Z,31.57
2019-03-31T20:27:27.783Z,24.33
2019-03-31T20:30:25.224Z,28.97
2019-03-31T20:33:17.172Z,25.77
2019-03-31T20:36:24.087Z,38.23
2019-03-31T20:38:59.997Z,33.50
2019-03-31T20:41:47.538Z,27.73
2019-03-31T20:44:17.037Z,39.60
2019-03-31T20:46:46.605Z,35.80
2019-03-31T20:49:16.287Z,36.50
2019-03-31T20:51:45.951Z,32.00
2019-03-31T20:54:15.713Z,28.67
2019-03-31T20:56:45.348Z,35.00
2019-03-31T20:59:18.212Z,30.07
2019-03-31T21:01:47.888Z,31.03
2019-03-31T21:04:17.495Z,26.43
2019-03-31T21:06:47.126Z,23.23
2019-03-31T21:09:17.892Z,28.47
2019-03-31T21:11:52.221Z,29.43
2019-03-31T21:14:21.776Z,27.00
2019-03-31T21:16:54.758Z,22.60
2019-03-31T21:19:24.416Z,28.60
2019-03-31T21:21:55.353Z,28.50
2019-03-31T21:24:25.056Z,34.37
2019-03-31T21:26:56.387Z,26.53
2019-03-31T21:29:26.039Z,30.20
2019-03-31T21:31:58.621Z,33.10
2019-03-31T21:34:29.386Z,25.70
2019-03-31T21:37:00.405Z,33.43
2019-03-31T21:39:32.026Z,23.13
2019-03-31T21:42:01.564Z,27.07
2019-03-31T21:44:31.203Z,27.37
2019-03-31T21:47:04.557Z,27.43
2019-03-31T21:49:35.508Z,26.67
2019-03-31T21:52:06.218Z,23.80
2019-03-31T21:54:38.950Z,21.90
2019-03-31T21:57:09.755Z,25.37
2019-03-31T21:59:43.744Z,29.90
2019-03-31T22:02:15.220Z,26.43
2019-03-31T22:04:44.977Z,26.73
2019-03-31T22:07:14.661Z,26.87
2019-03-31T22:09:44.287Z,30.07
2019-03-31T22:12:14.954Z,34.27
2019-03-31T22:14:49.041Z,25.30
2019-03-31T22:17:18.355Z,25.70
2019-03-31T22:19:50.129Z,26.90
2019-03-31T22:22:19.833Z,26.53
2019-03-31T22:24:51.500Z,32.23
2019-03-31T22:27:21.158Z,25.63
2019-03-31T22:29:52.713Z,27.80
2019-03-31T22:32:22.275Z,25.20
2019-03-31T22:34:51.874Z,24.10
2019-03-31T22:37:23.513Z,26.93
2019-03-31T22:39:54.610Z,23.57
2019-03-31T22:42:24.229Z,26.80
2019-03-31T22:44:55.291Z,26.03
2019-03-31T22:47:26.688Z,36.13
2019-03-31T22:49:56.290Z,22.97
2019-03-31T22:52:25.761Z,20.83
2019-03-31T22:54:55.438Z,27.07
2019-03-31T22:57:25.155Z,26.23
2019-03-31T22:59:54.641Z,21.60
2019-03-31T23:02:26.478Z,28.07
2019-03-31T23:04:56.406Z,25.57
2019-03-31T23:07:25.909Z,24.03
2019-03-31T23:09:55.685Z,26.57
2019-03-31T23:12:25.264Z,25.60
2019-03-31T23:14:54.833Z,28.93
2019-03-31T23:17:28.985Z,23.07
2019-03-31T23:19:56.016Z,22.10
2019-03-31T23:22:27.736Z,24.10
2019-03-31T23:24:57.012Z,30.60
2019-03-31T23:27:32.225Z,27.10
2019-03-31T23:30:01.849Z,23.70
2019-03-31T23:32:31.430Z,26.53
2019-03-31T23:35:02.231Z,27.50
2019-03-31T23:37:33.491Z,26.43
2019-03-31T23:40:09.863Z,19.00
2019-03-31T23:42:39.644Z,27.00
2019-03-31T23:45:13.213Z,31.70
2019-03-31T23:47:45.904Z,23.47
2019-03-31T23:50:15.676Z,25.30
2019-03-31T23:52:45.255Z,28.87
2019-03-31T23:55:16.097Z,32.03
2019-03-31T23:57:45.741Z,28.93
